Flight Track Log - Related Links

Times and Time Zones

All times are in EDT time to prevent confusion due to time zone crossing. See the SWA1435 flight status page for this flight to view local times or setup timezone preferences in your user account.

Time Position Orientation Groundspeed Altitude Reporting Facility
EDT Latitude Longitude Course Direction KTS MPH feet Rate Location/Type
Mon 09:30:26 AM 38.7975 -90.4850 307° West 203 234 3,900  Level Kansas City Center
Mon 09:32:00 AM 38.8756 -90.6403 303° West  Level Estimated
Mon 09:32:30 AM 38.8781 -90.6417 303° West 266 306 9,300  Level Kansas City Center
Mon 09:34:00 AM 38.9586 -90.8027 322° Northwest  Level Estimated
Mon 09:34:33 AM 38.9919 -90.8600 322° Northwest 344 396 14,400  Level Kansas City Center
Mon 09:35:35 AM 39.0464 -90.9681 303° West 357 411 16,600 2,177 Climbing Kansas City Center
Mon 09:36:37 AM 39.1039 -91.0808 303° West 371 427 18,900 2,129 Climbing Kansas City Center
Mon 09:37:39 AM 39.1550 -91.2008 299° West 380 437 21,000 1,610 Climbing Kansas City Center
Mon 09:38:40 AM 39.2067 -91.3269 298° West 393 452 22,200 1,512 Climbing Kansas City Center
Mon 09:39:42 AM 39.2586 -91.4614 297° West 414 476 24,100 1,710 Climbing Kansas City Center
Mon 09:41:00 AM 39.3186 -91.6203 305° West  Level FlightAware Approximate
Mon 09:41:46 AM 39.3769 -91.7508 305° West 431 496 27,500  Level Kansas City Center
Mon 09:42:48 AM 39.4486 -91.8722 307° West 429 494 28,400 726 Climbing Kansas City Center
Mon 09:43:50 AM 39.5197 -91.9947 307° West 427 491 29,000 1,024 Climbing Kansas City Center
Mon 09:44:51 AM 39.5903 -92.1233 305° West 436 502 30,500 1,622 Climbing Kansas City Center
Mon 09:46:55 AM 39.7425 -92.3958 306° West 424 488 34,000 1,129 Climbing Kansas City Center
Mon 09:47:57 AM 39.8097 -92.5167 306° West 416 479 34,000  Level Kansas City Center
Mon 09:50:01 AM 39.9464 -92.7608 306° West 419 482 34,000  Level Kansas City Center
Mon 09:51:50 AM 40.0681 -92.9842 305° West 421 484 34,000  Level Minneapolis Center
Mon 09:52:52 AM 40.1492 -93.1350 305° West 420 483 34,000  Level Minneapolis Center
Mon 09:53:53 AM 40.2169 -93.2600 305° West 422 486 34,000  Level Minneapolis Center
Mon 09:54:08 AM 40.2317 -93.2858 307° West 422 486 34,000 -234 Level Kansas City Center
Mon 09:55:10 AM 40.2992 -93.4117 305° West 424 488 33,700 -484 Descending Kansas City Center
Mon 09:56:12 AM 40.3694 -93.5392 306° West 429 494 33,000 -389 Descending Kansas City Center
Mon 09:56:58 AM 40.4228 -93.6425 304° West 432 497 33,000  Level Minneapolis Center
Mon 09:59:18 AM 40.5889 -93.9533 305° West 434 499 33,000 -324 Level Kansas City Center
Mon 10:00:03 AM 40.6153 -94.0747 286° West 434 499 32,000 -2,107 Descending Minneapolis Center
Mon 10:02:06 AM 40.6617 -94.3769 282° West 425 489 27,100 -2,264 Descending Minneapolis Center
Mon 10:04:28 AM 40.7183 -94.7067 283° West 384 442 22,000 -2,051 Descending Kansas City Center
Mon 10:06:00 AM 40.7464 -94.9204 279° West  Level FlightAware Approximate
Mon 10:07:19 AM 40.7842 -95.0528 315° West 325 374 16,400  Level Minneapolis Center
Mon 10:09:20 AM 40.8886 -95.2492 305° West 333 383 11,400 -2,179 Descending Minneapolis Center
Mon 10:10:18 AM 40.9325 -95.3436 302° West 337 388 9,900 -900 Descending Minneapolis Center
Mon 10:11:20 AM 40.9819 -95.4225 310° West 288 331 9,600 -878 Descending Minneapolis Center
Mon 10:12:21 AM 41.0417 -95.4608 334° Northwest 257 296 8,100 -1,268 Descending Minneapolis Center
Mon 10:13:00 AM 41.1662 -95.7050 315° West  Level FlightAware Approximate
Mon 10:13:23 AM 41.1003 -95.4989 334° Northwest 243 280 7,000  Level Minneapolis Center
Mon 10:14:24 AM 41.1072 -95.5661 278° West 243 280 5,700 -1,122 Descending Minneapolis Center
Mon 10:15:26 AM 41.0758 -95.6381 240° Southwest 232 267 4,700 -1,065 Descending Minneapolis Center
Mon 10:16:28 AM 41.1178 -95.7228 303° West 232 267 3,500 -823 Descending Minneapolis Center
Mon 10:17:30 AM 41.1656 -95.7656 326° Northwest 220 253 3,000 -321 Descending Minneapolis Center
Mon 10:18:20 AM 41.2033 -95.8028 323° Northwest 184 212 2,900 -526 Descending Minneapolis Center
Mon 10:20:21 AM 41.2725 -95.8694 324° Northwest 128 147 1,500 -694 Descending Minneapolis Center
Mon 10:22:00 AM 41.3000 -95.8833 312° West  Level FlightAware Approximate
Mon 10:29:00 AM 41.3032 -95.8941 312° West  Level Estimated

Login

Don't have an account? Register now (free) for customized features, flight alerts, and more!